This is the latest recevied weather packets stored in our database for station/object W5ADC. If no packets are shown the sender has not sent any weather packets the latest 1 day(s).
| Time | Temp. | Humidity | Pressure | Rain* | Wind** | Luminosity | Snow |
|---|---|---|---|---|---|---|---|
| 1778034934 | 20.56° C | 77% | 1003.6 hPa | 0 mm | - | 0 W/m² | - |
| 1778034632 | 20.56° C | 77% | 1003.4 hPa | 0 mm | - | 0 W/m² | - |
| 1778034027 | 21.11° C | 77% | 1003.3 hPa | 0 mm | - | 0 W/m² | - |
| 1778033724 | 21.67° C | 76% | 1003.3 hPa | 0 mm | - | 0 W/m² | - |
| 1778033421 | 21.67° C | 76% | 1003.2 hPa | 0 mm | - | 0 W/m² | - |
| 1778033119 | 22.22° C | 75% | 1002.7 hPa | 0 mm | - | 0 W/m² | - |
| 1778032210 | 22.78° C | 73% | 1002.9 hPa | 0 mm | - | 0 W/m² | - |
| 1778031908 | 22.78° C | 72% | 1002.7 hPa | 0 mm | - | 0 W/m² | - |
| 1778030997 | 22.78° C | 71% | 1002.5 hPa | 0 mm | - | 0 W/m² | - |
| 1778030694 | 22.78° C | 70% | 1002.5 hPa | 0 mm | - | 0 W/m² | - |
| 1778030391 | 22.78° C | 70% | 1002.7 hPa | 0 mm | - | 0 W/m² | - |
| 1778030088 | 22.78° C | 70% | 1002.7 hPa | 0 mm | - | 0 W/m² | - |
| 1778029785 | 23.33° C | 70% | 1002.3 hPa | 0 mm | - | 1 W/m² | - |
| 1778029484 | 23.33° C | 71% | 1002.2 hPa | 0 mm | - | 1 W/m² | - |
| 1778028878 | 23.33° C | 71% | 1001.6 hPa | 0 mm | - | 5 W/m² | - |
| 1778027663 | 23.89° C | 69% | 1001.8 hPa | 0 mm | - | 6 W/m² | - |
| 1778027360 | 24.44° C | 69% | 1001.6 hPa | 0 mm | - | 11 W/m² | - |
| 1778027056 | 25° C | 69% | 1001.8 hPa | 0 mm | - | 18 W/m² | - |
| 1778026751 | 25° C | 67% | 1001.8 hPa | 0 mm | - | 25 W/m² | - |
| 1778026449 | 25.56° C | 66% | 1001.8 hPa | 0 mm | - | 31 W/m² | - |
| 1778026146 | 25.56° C | 66% | 1001.5 hPa | 0 mm | - | 37 W/m² | - |
| 1778025540 | 25.56° C | 66% | 1001 hPa | 0 mm | - | 65 W/m² | - |
| 1778023724 | 27.78° C | 62% | 1001 hPa | 0 mm | - | 72 W/m² | - |
| 1778023422 | 28.33° C | 58% | 1000.7 hPa | 0 mm | - | 73 W/m² | - |
| 1778023118 | 28.89° C | 55% | 1000.5 hPa | 0 mm | - | 104 W/m² | - |
* Rain latest hour (hover to see other rain measurements)
** Current wind speed in m/s (hover to see current wind gust speed)